Time;durP1;ratioP1;P1;durP2;ratioP2;P2;SDS_P1;SDS_P2;PMS_P1;PMS_P2;Temp;Humidity;BMP_temperature;BMP_pressure;BME280_temperature;BME280_humidity;BME280_pressure;Samples;Min_cycle;Max_cycle;Signal;HPM_P1;HPM_P2
2022/10/07 00:01:36;;;;;;;5.40;1.33;;;8.50;99.90;;;;;;5054050;28;20025;-73
2022/10/07 00:04:02;;;;;;;7.28;1.02;;;8.50;99.90;;;;;;5054941;28;20021;-73
2022/10/07 00:06:27;;;;;;;5.63;0.60;;;8.40;99.90;;;;;;5054797;28;20023;-72
2022/10/07 00:08:53;;;;;;;10.70;0.75;;;8.50;99.90;;;;;;5055144;28;20463;-73
2022/10/07 00:11:20;;;;;;;13.82;1.15;;;8.50;99.90;;;;;;5054721;28;20053;-73
2022/10/07 00:13:48;;;;;;;7.80;0.77;;;8.50;99.90;;;;;;5036935;28;20115;-72
2022/10/07 00:16:19;;;;;;;6.55;1.05;;;8.50;99.90;;;;;;5054671;28;20039;-73
2022/10/07 00:18:47;;;;;;;4.65;0.80;;;8.50;99.90;;;;;;5036800;28;20120;-72
2022/10/07 00:21:15;;;;;;;6.75;0.75;;;8.60;99.90;;;;;;5036625;28;20036;-72
2022/10/07 00:23:42;;;;;;;8.20;1.70;;;8.60;99.90;;;;;;5054417;28;20411;-73
2022/10/07 00:26:10;;;;;;;3.63;0.73;;;8.60;99.90;;;;;;5036592;28;20048;-73
2022/10/07 00:28:36;;;;;;;3.50;0.65;;;8.60;99.90;;;;;;5036431;28;20028;-72
2022/10/07 00:31:05;;;;;;;3.40;0.15;;;8.70;99.90;;;;;;5054223;28;20029;-73
2022/10/07 00:33:32;;;;;;;;;;;8.80;99.90;;;;;;5054793;28;20020;-72
2022/10/07 00:35:58;;;;;;;6.60;0.52;;;9.00;99.90;;;;;;5054527;28;19909;-73
2022/10/07 00:38:23;;;;;;;12.02;0.85;;;9.10;99.90;;;;;;5054232;28;20094;-73
2022/10/07 00:40:49;;;;;;;13.35;1.50;;;9.20;99.90;;;;;;5036284;28;20023;-73
2022/10/07 00:43:41;;;;;;;9.27;0.55;;;9.30;99.90;;;;;;5036409;28;20119;-73
2022/10/07 00:46:22;;;;;;;6.10;0.28;;;9.40;99.90;;;;;;5051354;28;20037;-72
2022/10/07 00:48:48;;;;;;;12.98;0.52;;;9.50;99.90;;;;;;5054514;28;20029;-73
2022/10/07 00:51:15;;;;;;;5.68;0.65;;;9.70;99.90;;;;;;5053981;28;20075;-73
2022/10/07 00:53:43;;;;;;;6.97;0.68;;;9.80;99.90;;;;;;5035994;28;20027;-73
2022/10/07 00:56:10;;;;;;;9.35;0.95;;;9.90;99.90;;;;;;5053923;28;20096;-73
2022/10/07 00:58:38;;;;;;;12.20;1.05;;;10.00;99.90;;;;;;5053846;28;20553;-73
2022/10/07 01:01:03;;;;;;;8.67;0.57;;;10.00;99.90;;;;;;5053703;28;20061;-73
2022/10/07 01:03:29;;;;;;;8.63;0.70;;;10.10;99.90;;;;;;5035894;28;20049;-73
2022/10/07 01:05:55;;;;;;;5.03;0.40;;;10.10;99.90;;;;;;5053753;28;20120;-73
2022/10/07 01:08:22;;;;;;;11.15;0.20;;;10.10;99.90;;;;;;5053815;28;20025;-72
2022/10/07 01:11:12;;;;;;;6.18;0.45;;;10.20;99.90;;;;;;5053494;28;20017;-73
2022/10/07 01:14:11;;;;;;;9.60;0.98;;;10.20;99.90;;;;;;5035766;28;20115;-73
2022/10/07 01:17:00;;;;;;;6.72;0.75;;;10.20;99.90;;;;;;5053631;28;20020;-73
2022/10/07 01:19:30;;;;;;;10.13;0.43;;;10.20;99.90;;;;;;5053393;28;20029;-73
2022/10/07 01:22:23;;;;;;;4.90;0.82;;;10.20;99.90;;;;;;5035477;28;20396;-73
2022/10/07 01:25:16;;;;;;;8.32;0.28;;;10.30;99.90;;;;;;5053410;28;20480;-73
2022/10/07 01:28:23;;;;;;;14.13;1.42;;;10.30;99.90;;;;;;5053229;28;20025;-73
2022/10/07 01:30:56;;;;;;;4.32;1.02;;;10.30;99.90;;;;;;5023810;28;20040;-72
2022/10/07 01:33:27;;;;;;;6.07;0.55;;;10.30;99.90;;;;;;5053244;28;20017;-72
2022/10/07 01:35:55;;;;;;;4.70;0.75;;;10.30;99.90;;;;;;5035396;28;20013;-72
2022/10/07 01:38:25;;;;;;;6.43;0.50;;;10.30;99.90;;;;;;5053124;28;20033;-72
2022/10/07 01:41:03;;;;;;;9.73;0.68;;;10.20;99.90;;;;;;5053182;28;20267;-73
2022/10/07 01:43:31;;;;;;;9.00;1.45;;;10.20;99.90;;;;;;5035893;28;20028;-73
2022/10/07 01:45:58;;;;;;;12.55;0.75;;;10.20;99.90;;;;;;5053148;28;20029;-72
2022/10/07 01:48:23;;;;;;;5.47;0.88;;;10.20;99.90;;;;;;5052948;28;20029;-73
2022/10/07 01:50:50;;;;;;;5.85;0.50;;;10.10;99.90;;;;;;5053122;28;20017;-72
2022/10/07 01:53:35;;;;;;;7.53;0.35;;;10.10;99.90;;;;;;5053478;28;20029;-73
2022/10/07 01:56:22;;;;;;;12.68;2.15;;;10.10;99.90;;;;;;5053815;28;20063;-73
2022/10/07 01:58:52;;;;;;;5.82;0.55;;;10.10;99.90;;;;;;5053345;28;20491;-73
2022/10/07 02:01:46;;;;;;;10.85;1.23;;;10.00;99.90;;;;;;5035085;28;20029;-73
2022/10/07 02:04:30;;;;;;;13.27;0.57;;;10.00;99.90;;;;;;5052965;28;20029;-73
2022/10/07 02:07:22;;;;;;;6.45;1.05;;;9.90;99.90;;;;;;5053115;28;20033;-73
2022/10/07 02:10:30;;;;;;;8.93;0.47;;;9.80;99.90;;;;;;5052455;28;20049;-73
2022/10/07 02:13:15;;;;;;;5.50;0.88;;;9.80;99.90;;;;;;5044947;28;20037;-73
2022/10/07 02:15:48;;;;;;;5.50;1.30;;;9.60;99.90;;;;;;5053476;28;20448;-73
2022/10/07 02:18:16;;;;;;;13.15;2.25;;;9.50;99.90;;;;;;5052992;28;20025;-73
2022/10/07 02:20:46;;;;;;;10.87;1.13;;;9.40;99.90;;;;;;5052793;28;20506;-73
2022/10/07 02:23:13;;;;;;;11.27;1.02;;;9.30;99.90;;;;;;5053163;28;20086;-73
2022/10/07 02:25:45;;;;;;;6.93;1.00;;;9.30;99.90;;;;;;5056294;28;20108;-73
2022/10/07 02:28:13;;;;;;;6.07;1.02;;;9.30;99.90;;;;;;5056482;28;20025;-72
2022/10/07 02:30:42;;;;;;;5.13;1.38;;;9.20;99.90;;;;;;5038590;28;20387;-73
2022/10/07 02:33:09;;;;;;;6.28;0.85;;;9.10;99.90;;;;;;5056724;28;20384;-73
2022/10/07 02:35:49;;;;;;;15.05;1.48;;;9.10;99.90;;;;;;5056674;28;20028;-73
2022/10/07 02:38:17;;;;;;;10.43;1.35;;;9.10;99.90;;;;;;5056831;28;20387;-72
2022/10/07 02:41:05;;;;;;;11.85;1.45;;;9.10;99.90;;;;;;5038524;28;20024;-73
2022/10/07 02:43:38;;;;;;;15.05;1.90;;;9.20;99.90;;;;;;5056751;28;20037;-73
2022/10/07 02:46:09;;;;;;;7.00;1.33;;;9.30;99.90;;;;;;5056996;28;20029;-73
2022/10/07 02:48:40;;;;;;;10.30;2.75;;;9.30;99.90;;;;;;5038227;28;20051;-72
2022/10/07 02:51:09;;;;;;;7.70;0.93;;;9.40;99.90;;;;;;5056081;28;20040;-72
2022/10/07 02:53:36;;;;;;;6.93;1.80;;;9.40;99.90;;;;;;5056078;28;20025;-73
2022/10/07 02:56:04;;;;;;;9.30;1.83;;;9.40;99.90;;;;;;5056105;28;20510;-73
2022/10/07 02:58:29;;;;;;;10.18;1.35;;;9.40;99.90;;;;;;5056009;28;20480;-72
2022/10/07 03:00:58;;;;;;;9.98;1.77;;;9.50;99.90;;;;;;5038058;28;20027;-72
2022/10/07 03:03:24;;;;;;;;;;;9.50;99.90;;;;;;5057057;28;20075;-72
2022/10/07 03:05:51;;;;;;;13.52;1.27;;;9.50;99.90;;;;;;5056045;28;19912;-72
2022/10/07 03:08:18;;;;;;;14.00;1.67;;;9.50;99.90;;;;;;5055928;28;20056;-72
2022/10/07 03:10:44;;;;;;;13.05;1.80;;;9.50;99.90;;;;;;5056116;28;20028;-74
2022/10/07 03:13:09;;;;;;;13.00;2.20;;;9.50;99.90;;;;;;5056399;28;20108;-74
2022/10/07 03:15:36;;;;;;;7.32;1.25;;;9.40;99.90;;;;;;5055852;28;20028;-74
2022/10/07 03:18:02;;;;;;;12.30;1.88;;;9.40;99.90;;;;;;5056318;28;20021;-72
2022/10/07 03:20:31;;;;;;;8.00;0.80;;;9.40;99.90;;;;;;5055968;28;20020;-74
2022/10/07 03:22:58;;;;;;;13.23;1.25;;;9.30;99.90;;;;;;5055913;28;20445;-72
2022/10/07 03:25:25;;;;;;;13.88;1.65;;;9.30;99.90;;;;;;5055639;28;20098;-72
2022/10/07 03:27:53;;;;;;;9.73;1.48;;;9.20;99.90;;;;;;5055466;28;20033;-74
2022/10/07 03:30:21;;;;;;;12.75;1.20;;;9.10;99.90;;;;;;5055525;28;20021;-74
2022/10/07 03:32:48;;;;;;;9.67;1.30;;;9.10;99.90;;;;;;5055816;28;20472;-74
2022/10/07 03:35:14;;;;;;;15.90;2.13;;;9.00;99.90;;;;;;5054533;28;20267;-74
2022/10/07 03:37:40;;;;;;;18.80;1.85;;;9.00;99.90;;;;;;5055140;28;20025;-74
2022/10/07 03:40:06;;;;;;;7.45;0.98;;;9.00;99.90;;;;;;5055342;28;20036;-74
2022/10/07 03:42:32;;;;;;;11.68;2.00;;;8.90;99.90;;;;;;5055299;28;20017;-74
2022/10/07 03:44:58;;;;;;;11.60;1.98;;;8.90;99.90;;;;;;5055775;28;20055;-74
2022/10/07 03:47:26;;;;;;;10.05;1.55;;;8.90;99.90;;;;;;5037434;28;20024;-74
2022/10/07 03:49:52;;;;;;;9.23;1.13;;;8.80;99.90;;;;;;5055360;28;20017;-74
2022/10/07 03:52:17;;;;;;;10.52;1.08;;;8.80;99.90;;;;;;5055348;28;20017;-74
2022/10/07 03:54:43;;;;;;;11.27;1.10;;;8.80;99.90;;;;;;5055165;28;20025;-74
2022/10/07 03:59:53;;;;;;;9.60;1.60;;;8.80;99.90;;;;;;5055570;28;20090;-74
2022/10/07 04:02:20;;;;;;;12.50;1.73;;;8.90;99.90;;;;;;5055006;28;20025;-74
2022/10/07 04:04:45;;;;;;;11.75;1.50;;;8.90;99.90;;;;;;5054964;28;20051;-74
2022/10/07 04:07:11;;;;;;;7.78;1.27;;;8.80;99.90;;;;;;5036882;28;20025;-74
2022/10/07 04:09:36;;;;;;;11.27;1.48;;;8.90;99.90;;;;;;5054637;28;20017;-74
2022/10/07 04:12:03;;;;;;;7.10;1.17;;;9.00;99.90;;;;;;5055254;28;20025;-75
2022/10/07 04:14:28;;;;;;;11.65;1.33;;;9.00;99.90;;;;;;5055014;28;20441;-74
2022/10/07 04:16:55;;;;;;;13.95;1.67;;;9.00;99.90;;;;;;5054856;28;20021;-74
2022/10/07 04:19:21;;;;;;;7.35;0.70;;;9.00;99.90;;;;;;5054534;28;20048;-74
2022/10/07 04:21:46;;;;;;;9.70;1.50;;;9.00;99.90;;;;;;5054490;28;20060;-74
2022/10/07 04:24:12;;;;;;;11.77;1.30;;;9.00;99.90;;;;;;5054575;28;20064;-74
2022/10/07 04:26:37;;;;;;;7.57;1.20;;;9.00;99.90;;;;;;5054443;28;20078;-73
2022/10/07 04:29:03;;;;;;;10.18;1.48;;;9.00;99.90;;;;;;5054441;28;20096;-74
2022/10/07 04:31:28;;;;;;;8.82;1.67;;;8.90;99.90;;;;;;5054285;28;20033;-74
2022/10/07 04:33:54;;;;;;;5.75;0.93;;;9.00;99.90;;;;;;5054679;28;20391;-74
2022/10/07 04:36:20;;;;;;;7.88;0.95;;;9.00;99.90;;;;;;5054263;28;20099;-74
2022/10/07 04:38:51;;;;;;;4.78;0.95;;;9.00;99.90;;;;;;5054246;28;20037;-74
2022/10/07 04:41:17;;;;;;;9.63;1.35;;;9.10;99.90;;;;;;5036416;28;20028;-74
2022/10/07 04:43:43;;;;;;;19.40;2.15;;;9.10;99.90;;;;;;5054263;28;20029;-74
2022/10/07 04:46:13;;;;;;;7.95;1.42;;;9.20;99.90;;;;;;5054081;28;20031;-74
2022/10/07 04:48:38;;;;;;;8.77;1.50;;;9.20;99.90;;;;;;5053767;28;20060;-74
2022/10/07 04:51:07;;;;;;;6.00;1.20;;;9.20;99.90;;;;;;5054161;28;20045;-74
2022/10/07 04:53:34;;;;;;;8.43;0.38;;;9.30;99.90;;;;;;5054090;28;20032;-74
2022/10/07 04:55:59;;;;;;;7.88;1.10;;;9.30;99.90;;;;;;5035997;28;20025;-74
2022/10/07 04:58:26;;;;;;;5.78;0.40;;;9.40;99.90;;;;;;5053960;28;20360;-74
2022/10/07 05:00:53;;;;;;;9.05;0.85;;;9.40;99.90;;;;;;5053796;28;20391;-77
2022/10/07 05:03:21;;;;;;;13.38;1.83;;;9.40;99.90;;;;;;5036012;28;20024;-76
2022/10/07 05:05:49;;;;;;;13.80;0.80;;;9.40;99.90;;;;;;5053827;28;20384;-76
2022/10/07 05:08:17;;;;;;;10.70;0.68;;;9.40;99.90;;;;;;5054085;28;20357;-76
2022/10/07 05:10:43;;;;;;;7.38;1.25;;;9.50;99.90;;;;;;5053972;28;20021;-75
2022/10/07 05:13:11;;;;;;;10.80;1.30;;;9.50;99.90;;;;;;5053949;28;20025;-76
2022/10/07 05:15:58;;;;;;;4.50;0.70;;;9.50;99.90;;;;;;5053615;28;20388;-76
2022/10/07 05:18:25;;;;;;;13.43;1.48;;;9.50;99.90;;;;;;5053842;28;20033;-76
2022/10/07 05:20:51;;;;;;;18.00;1.45;;;9.50;99.90;;;;;;5053744;28;20032;-76
2022/10/07 05:23:19;;;;;;;8.40;1.10;;;9.60;99.90;;;;;;5053349;28;20037;-76
2022/10/07 05:25:45;;;;;;;13.00;0.88;;;9.60;99.90;;;;;;5035637;28;20029;-76
2022/10/07 05:28:12;;;;;;;6.97;0.93;;;9.60;99.90;;;;;;5035525;28;20491;-76
2022/10/07 05:30:38;;;;;;;10.18;1.00;;;9.70;99.90;;;;;;5035463;28;20021;-76
2022/10/07 05:33:06;;;;;;;10.88;1.25;;;9.70;99.90;;;;;;5053279;28;20103;-75
2022/10/07 05:35:33;;;;;;;7.32;0.82;;;9.80;99.90;;;;;;5053586;28;20067;-76
2022/10/07 05:37:59;;;;;;;12.63;1.92;;;9.80;99.90;;;;;;5035309;28;20121;-76
2022/10/07 05:40:25;;;;;;;15.77;1.58;;;9.90;99.90;;;;;;5053180;28;20487;-75
2022/10/07 05:42:51;;;;;;;15.23;1.88;;;9.90;99.90;;;;;;5035362;28;20123;-75
2022/10/07 05:45:18;;;;;;;7.25;0.47;;;9.90;99.90;;;;;;5053155;28;20079;-76
2022/10/07 05:47:44;;;;;;;14.27;2.45;;;9.90;99.90;;;;;;5054264;28;20108;-76
2022/10/07 05:50:09;;;;;;;13.45;0.45;;;10.00;99.90;;;;;;5035215;28;20059;-76
2022/10/07 05:52:35;;;;;;;10.43;1.00;;;10.00;99.90;;;;;;5053099;28;20025;-76
2022/10/07 05:55:01;;;;;;;5.93;0.70;;;10.00;99.90;;;;;;5053215;28;20071;-75
2022/10/07 05:57:26;;;;;;;11.65;0.50;;;10.00;99.90;;;;;;5035235;28;20024;-76
2022/10/07 05:59:52;;;;;;;9.45;1.08;;;10.00;99.90;;;;;;5037327;28;20021;-76
2022/10/07 06:02:18;;;;;;;3.40;0.77;;;10.10;99.90;;;;;;5039281;28;20103;-76
2022/10/07 06:04:47;;;;;;;5.82;0.77;;;10.10;99.90;;;;;;5057205;28;20025;-76
2022/10/07 06:07:14;;;;;;;7.25;0.52;;;10.10;99.90;;;;;;5057233;28;20052;-76
2022/10/07 06:15:08;;;;;;;6.82;0.35;;;10.40;99.90;;;;;;5057814;28;20048;-75
2022/10/07 06:17:35;;;;;;;14.82;1.05;;;10.50;99.90;;;;;;5038970;28;20056;-75
2022/10/07 06:20:00;;;;;;;19.25;1.70;;;10.60;99.90;;;;;;5056706;28;20385;-75
2022/10/07 06:22:26;;;;;;;6.93;1.10;;;10.70;99.90;;;;;;5056603;28;20048;-75
2022/10/07 06:24:56;;;;;;;7.93;0.90;;;10.80;99.90;;;;;;5039104;28;20036;-78
2022/10/07 06:27:23;;;;;;;5.45;0.35;;;10.80;99.90;;;;;;5058493;28;20032;-77
2022/10/07 06:29:49;;;;;;;14.77;0.98;;;10.80;99.90;;;;;;5039176;28;20365;-75
2022/10/07 06:32:15;;;;;;;10.88;0.90;;;10.90;99.90;;;;;;5038856;28;20013;-76
2022/10/07 06:34:40;;;;;;;9.32;1.52;;;10.80;99.90;;;;;;5038915;28;20040;-75
2022/10/07 06:37:06;;;;;;;10.02;1.05;;;10.80;99.90;;;;;;5038876;28;20021;-75
2022/10/07 06:39:31;;;;;;;9.70;0.30;;;10.80;99.90;;;;;;5038551;28;20033;-75
2022/10/07 06:41:57;;;;;;;6.93;1.17;;;10.80;99.90;;;;;;5038582;28;20055;-75
2022/10/07 06:44:22;;;;;;;20.50;1.20;;;10.80;99.90;;;;;;5056365;28;20055;-75
2022/10/07 06:46:48;;;;;;;7.20;0.95;;;10.80;99.90;;;;;;5038720;28;20021;-75
2022/10/07 06:49:13;;;;;;;4.03;0.68;;;10.70;99.90;;;;;;5056292;28;20029;-75
2022/10/07 06:51:39;;;;;;;9.50;0.65;;;10.80;99.90;;;;;;5056485;28;20040;-75
2022/10/07 06:54:04;;;;;;;7.97;1.40;;;10.90;99.90;;;;;;5056619;28;20380;-75
2022/10/07 06:56:30;;;;;;;6.78;0.50;;;10.90;99.90;;;;;;5056240;28;20472;-75
2022/10/07 06:58:56;;;;;;;14.50;1.17;;;11.10;99.90;;;;;;5056126;28;20112;-75
2022/10/07 07:01:21;;;;;;;10.82;0.70;;;11.20;99.90;;;;;;5055923;28;20021;-75
2022/10/07 07:03:47;;;;;;;13.25;1.63;;;11.20;99.90;;;;;;5056020;28;20022;-75
2022/10/07 07:06:13;;;;;;;7.95;0.77;;;11.30;99.90;;;;;;5056228;28;20025;-75
2022/10/07 07:08:40;;;;;;;5.28;0.52;;;11.60;99.90;;;;;;5038099;28;20028;-75
2022/10/07 07:13:53;;;;;;;13.85;0.82;;;11.50;99.90;;;;;;5056748;28;20553;-75
2022/10/07 07:16:19;;;;;;;8.95;1.73;;;11.60;99.90;;;;;;5037884;28;20024;-75
2022/10/07 07:18:53;;;;;;;7.88;0.77;;;11.70;99.90;;;;;;5037920;28;20029;-75
2022/10/07 07:21:19;;;;;;;11.10;0.95;;;11.80;99.90;;;;;;5038022;28;20021;-75
2022/10/07 07:23:45;;;;;;;7.80;1.38;;;11.80;99.90;;;;;;5037637;28;20116;-75
2022/10/07 07:26:11;;;;;;;6.95;0.32;;;11.90;99.90;;;;;;5055624;28;20100;-75
2022/10/07 07:28:38;;;;;;;3.13;0.45;;;11.90;99.90;;;;;;5037623;28;20435;-75
2022/10/07 07:31:11;;;;;;;8.90;0.38;;;12.00;99.90;;;;;;5055453;28;20025;-75
2022/10/07 07:33:38;;;;;;;9.73;1.08;;;12.10;99.90;;;;;;5037722;28;20027;-75
2022/10/07 07:36:14;;;;;;;5.82;0.82;;;12.20;99.90;;;;;;5055417;28;20023;-75
2022/10/07 07:38:41;;;;;;;7.30;0.90;;;12.30;99.90;;;;;;5055797;28;20039;-75
2022/10/07 07:41:08;;;;;;;10.85;0.20;;;12.30;99.90;;;;;;5037378;28;20117;-75
2022/10/07 07:43:36;;;;;;;4.32;0.77;;;12.40;99.90;;;;;;5037520;28;20064;-75
2022/10/07 07:46:02;;;;;;;6.13;0.20;;;12.40;99.90;;;;;;5037326;28;20017;-75
2022/10/07 07:48:29;;;;;;;10.75;0.80;;;12.50;99.90;;;;;;5055235;28;20416;-75
2022/10/07 07:50:54;;;;;;;12.07;0.63;;;12.60;99.90;;;;;;5055072;28;20043;-76
2022/10/07 07:53:21;;;;;;;5.40;0.40;;;12.70;99.90;;;;;;5055081;28;20060;-76
2022/10/07 07:55:54;;;;;;;5.32;0.68;;;12.80;99.90;;;;;;5055600;28;20009;-78
2022/10/07 07:58:21;;;;;;;6.53;0.22;;;12.80;99.90;;;;;;5037138;28;20538;-75
2022/10/07 08:01:07;;;;;;;9.10;0.40;;;12.90;99.90;;;;;;5054949;28;20025;-75
2022/10/07 08:03:37;;;;;;;7.03;0.90;;;13.00;99.90;;;;;;5054971;28;20040;-75
2022/10/07 08:06:05;;;;;;;3.92;0.35;;;13.10;99.90;;;;;;5037054;28;20475;-75
2022/10/07 08:08:31;;;;;;;7.20;0.63;;;13.10;99.90;;;;;;5036897;28;20028;-75
2022/10/07 08:11:04;;;;;;;7.45;0.10;;;13.10;99.90;;;;;;5054810;28;20079;-74
2022/10/07 08:13:31;;;;;;;5.30;0.65;;;13.00;99.90;;;;;;5054993;28;20029;-74
2022/10/07 08:15:57;;;;;;;10.73;1.23;;;13.00;99.90;;;;;;5054510;28;20021;-74
2022/10/07 08:18:23;;;;;;;11.32;1.02;;;12.90;99.90;;;;;;5054625;28;20031;-74
2022/10/07 08:20:59;;;;;;;6.30;0.35;;;12.90;99.90;;;;;;5054497;28;20044;-74
2022/10/07 08:23:25;;;;;;;12.68;0.95;;;13.00;99.90;;;;;;5075981;22;20513;-75
2022/10/07 08:25:58;;;;;;;10.88;1.10;;;13.20;99.90;;;;;;5074454;28;20024;-74
2022/10/07 08:28:25;;;;;;;5.38;0.20;;;13.40;99.90;;;;;;5074628;28;20390;-74
2022/10/07 08:30:51;;;;;;;12.43;0.40;;;13.50;99.90;;;;;;5074485;28;20028;-74
2022/10/07 08:33:17;;;;;;;14.45;1.33;;;13.70;99.90;;;;;;5056087;28;20394;-72
2022/10/07 08:35:47;;;;;;;5.93;0.20;;;13.90;99.90;;;;;;5056353;28;20024;-72
2022/10/07 08:38:14;;;;;;;5.60;0.10;;;14.10;99.90;;;;;;5074530;28;20540;-75
2022/10/07 08:40:49;;;;;;;5.55;1.27;;;14.00;99.90;;;;;;5074663;28;20487;-74
2022/10/07 08:43:17;;;;;;;11.85;0.43;;;14.10;99.90;;;;;;5074174;28;20036;-73
2022/10/07 08:45:44;;;;;;;5.40;0.35;;;14.10;99.90;;;;;;5074255;28;20027;-74
2022/10/07 08:48:17;;;;;;;3.10;0.30;;;14.20;99.90;;;;;;5073880;28;20024;-75
2022/10/07 08:51:02;;;;;;;8.73;0.80;;;14.30;99.90;;;;;;5056568;28;20043;-73
2022/10/07 08:53:32;;;;;;;6.22;0.30;;;14.40;99.90;;;;;;5074022;28;20432;-72
2022/10/07 08:56:10;;;;;;;9.07;0.63;;;14.40;99.90;;;;;;5074134;28;20021;-72
2022/10/07 08:59:15;;;;;;;4.13;0.60;;;14.30;99.90;;;;;;5055954;28;20098;-73
2022/10/07 09:02:17;;;;;;;8.10;0.70;;;14.50;99.90;;;;;;5022968;28;20041;-73
2022/10/07 09:05:01;;;;;;;6.15;0.25;;;14.60;99.90;;;;;;5042961;28;20051;-72
2022/10/07 09:07:41;;;;;;;8.13;1.17;;;14.60;99.90;;;;;;5073701;28;20449;-72
2022/10/07 09:10:35;;;;;;;12.15;0.30;;;14.50;99.90;;;;;;5055667;28;20032;-73
2022/10/07 09:13:09;;;;;;;5.93;1.00;;;14.70;99.90;;;;;;5074128;28;20024;-72
2022/10/07 09:15:44;;;;;;;9.60;0.45;;;14.70;99.90;;;;;;5073655;28;20069;-73
2022/10/07 09:18:30;;;;;;;5.82;0.43;;;14.80;99.90;;;;;;5073595;28;20375;-72
2022/10/07 09:20:56;;;;;;;6.50;0.80;;;14.90;99.90;;;;;;5055477;28;20020;-73
2022/10/07 09:23:24;;;;;;;12.45;0.88;;;15.00;99.90;;;;;;5055373;28;20036;-73
2022/10/07 09:25:53;;;;;;;9.45;0.65;;;15.10;99.90;;;;;;5073482;28;20029;-72
2022/10/07 09:28:24;;;;;;;8.10;0.22;;;15.10;99.90;;;;;;5073578;28;20032;-72
2022/10/07 09:30:49;;;;;;;8.02;0.20;;;15.10;99.90;;;;;;5073347;28;20019;-72
2022/10/07 09:33:19;;;;;;;6.97;0.50;;;15.10;99.90;;;;;;5073567;28;20024;-73
2022/10/07 09:35:55;;;;;;;5.93;0.43;;;15.10;99.90;;;;;;5073255;28;20048;-73
2022/10/07 09:38:35;;;;;;;7.28;0.70;;;15.20;99.90;;;;;;5055640;28;20025;-72
2022/10/07 09:41:16;;;;;;;5.63;0.10;;;15.20;99.90;;;;;;5073305;28;20538;-73
2022/10/07 09:43:58;;;;;;;11.60;0.90;;;15.20;99.90;;;;;;5055285;28;20086;-73
2022/10/07 09:46:40;;;;;;;7.68;1.17;;;15.30;99.90;;;;;;5073173;28;20031;-73
2022/10/07 09:49:25;;;;;;;6.03;0.35;;;15.30;99.90;;;;;;5073071;28;20024;-72
2022/10/07 09:52:15;;;;;;;12.38;0.82;;;15.40;99.90;;;;;;5055227;28;20025;-72
2022/10/07 09:54:43;;;;;;;14.15;1.15;;;15.50;99.90;;;;;;5055183;28;20074;-73
2022/10/07 09:57:29;;;;;;;11.35;0.73;;;15.50;99.90;;;;;;5073112;28;20029;-72
2022/10/07 10:00:16;;;;;;;5.55;0.43;;;15.50;99.90;;;;;;5073061;28;20024;-72
2022/10/07 10:02:57;;;;;;;10.75;0.68;;;15.60;99.90;;;;;;5055815;28;20115;-73
2022/10/07 10:05:32;;;;;;;9.45;0.88;;;15.70;99.90;;;;;;5073062;28;20479;-72
2022/10/07 10:08:19;;;;;;;6.45;0.47;;;15.70;99.90;;;;;;5054982;28;20437;-73
2022/10/07 10:10:54;;;;;;;4.30;0.13;;;15.80;99.90;;;;;;5072931;28;20540;-73
2022/10/07 10:13:39;;;;;;;13.02;1.27;;;15.90;99.90;;;;;;5072969;28;20021;-72
2022/10/07 10:16:27;;;;;;;10.02;1.05;;;16.00;99.90;;;;;;5073487;28;20415;-72
2022/10/07 10:19:01;;;;;;;4.27;0.57;;;16.10;99.90;;;;;;5072786;28;20024;-72
2022/10/07 10:21:40;;;;;;;8.07;0.40;;;16.30;99.90;;;;;;5072972;28;20785;-72
2022/10/07 10:24:12;;;;;;;9.30;0.65;;;16.60;99.90;;;;;;5072711;28;20102;-73
2022/10/07 10:27:03;;;;;;;6.97;0.57;;;16.80;99.90;;;;;;5054961;28;20047;-72
2022/10/07 10:29:45;;;;;;;5.25;0.20;;;16.90;99.90;;;;;;5055321;28;20055;-72
2022/10/07 10:32:52;;;;;;;6.85;0.20;;;17.10;99.90;;;;;;5055140;28;20471;-72
2022/10/07 10:35:27;;;;;;;10.05;1.63;;;17.10;99.90;;;;;;5072718;28;20035;-73
2022/10/07 10:38:14;;;;;;;4.22;0.45;;;17.40;99.90;;;;;;5072575;28;20020;-73
2022/10/07 10:40:55;;;;;;;5.93;0.55;;;17.50;99.90;;;;;;5072719;28;20053;-73
2022/10/07 10:43:23;;;;;;;5.63;1.08;;;17.60;99.90;;;;;;5054759;28;20021;-72
2022/10/07 10:46:07;;;;;;;8.70;0.95;;;17.70;99.90;;;;;;5074764;28;20483;-73
2022/10/07 10:48:52;;;;;;;5.25;0.75;;;17.70;99.90;;;;;;5076541;28;20480;-72
2022/10/07 10:51:36;;;;;;;8.60;0.50;;;17.70;99.90;;;;;;5076260;28;20415;-72
2022/10/07 10:54:23;;;;;;;6.03;0.38;;;17.70;99.90;;;;;;5058256;28;20020;-72
2022/10/07 10:56:52;;;;;;;9.93;0.30;;;17.60;99.90;;;;;;5076812;28;20031;-72
2022/10/07 10:59:59;;;;;;;9.15;0.40;;;17.30;99.90;;;;;;5076017;28;20031;-76
2022/10/07 11:03:09;;;;;;;5.30;0.55;;;17.20;99.90;;;;;;5062420;28;20041;-76
2022/10/07 11:05:39;;;;;;;4.78;0.47;;;17.10;99.90;;;;;;4974857;28;20490;-76
2022/10/07 11:08:16;;;;;;;6.10;0.10;;;17.30;99.90;;;;;;4958891;28;20038;-76
2022/10/07 11:10:47;;;;;;;11.32;0.57;;;17.40;99.90;;;;;;5015250;28;20039;-76
2022/10/07 11:13:14;;;;;;;6.07;1.25;;;17.60;99.90;;;;;;5058053;28;20154;-78
2022/10/07 11:15:47;;;;;;;6.93;0.38;;;17.60;99.90;;;;;;5058156;28;20053;-76
2022/10/07 11:18:29;;;;;;;7.65;0.22;;;17.60;99.90;;;;;;5075796;28;20035;-78
2022/10/07 11:21:01;;;;;;;8.30;0.75;;;17.60;99.90;;;;;;5075789;28;20029;-76
2022/10/07 11:23:52;;;;;;;12.02;0.45;;;17.60;99.90;;;;;;5075524;28;20036;-76
2022/10/07 11:26:18;;;;;;;6.80;0.70;;;17.40;99.90;;;;;;5076219;28;20182;-76
2022/10/07 11:28:45;;;;;;;7.93;0.60;;;17.40;99.90;;;;;;5057424;28;20530;-76
2022/10/07 11:31:33;;;;;;;7.80;0.65;;;17.30;99.90;;;;;;5057507;28;20204;-76
2022/10/07 11:34:17;;;;;;;7.43;0.75;;;17.30;99.90;;;;;;5057233;28;20020;-76
2022/10/07 11:37:09;;;;;;;8.40;0.32;;;17.50;99.90;;;;;;5057316;28;20016;-76
2022/10/07 11:39:38;;;;;;;5.30;0.28;;;17.60;99.90;;;;;;5075507;28;20025;-76
2022/10/07 11:42:14;;;;;;;3.97;0.00;;;17.70;99.90;;;;;;5075130;28;20021;-76
2022/10/07 11:45:32;;;;;;;5.60;0.32;;;17.70;99.90;;;;;;5075327;28;20030;-76
2022/10/07 11:48:06;;;;;;;2.70;0.08;;;17.70;99.90;;;;;;5003661;28;20036;-76
2022/10/07 11:50:39;;;;;;;4.00;0.52;;;17.70;99.90;;;;;;5057048;28;20139;-76
2022/10/07 11:53:19;;;;;;;10.90;0.75;;;17.60;99.90;;;;;;5075560;28;20379;-76
2022/10/07 11:55:54;;;;;;;4.93;0.22;;;17.50;99.90;;;;;;5057082;28;20513;-76
2022/10/07 11:58:28;;;;;;;2.97;0.13;;;17.40;99.90;;;;;;5074590;28;20024;-76
2022/10/07 12:01:24;;;;;;;4.35;0.85;;;17.40;99.90;;;;;;5074806;28;20032;-76
2022/10/07 12:03:53;;;;;;;4.78;0.10;;;17.50;99.90;;;;;;5074758;28;20111;-76
2022/10/07 12:06:19;;;;;;;2.75;0.52;;;17.60;99.90;;;;;;5074766;28;20103;-76
2022/10/07 12:08:48;;;;;;;7.20;0.65;;;17.70;99.90;;;;;;5056839;28;20490;-76
2022/10/07 12:11:14;;;;;;;7.00;0.17;;;17.80;99.90;;;;;;5074827;28;20081;-76
2022/10/07 12:13:45;;;;;;;4.53;0.73;;;17.80;99.90;;;;;;5074700;28;20021;-76
2022/10/07 12:16:22;;;;;;;1.42;0.05;;;17.70;99.90;;;;;;5074898;28;20016;-73
2022/10/07 12:19:06;;;;;;;6.95;0.20;;;17.60;99.90;;;;;;5074725;28;20058;-75
2022/10/07 12:22:02;;;;;;;4.45;0.70;;;17.60;99.90;;;;;;5074867;28;20029;-75
2022/10/07 12:24:30;;;;;;;6.50;0.15;;;17.50;99.90;;;;;;5074699;28;20036;-75
2022/10/07 12:27:04;;;;;;;5.32;0.10;;;17.60;99.90;;;;;;5074397;28;20025;-75
2022/10/07 12:29:48;;;;;;;6.78;0.15;;;17.60;99.90;;;;;;5056421;28;20082;-75
2022/10/07 12:32:44;;;;;;;11.13;1.50;;;17.50;99.90;;;;;;5074442;28;20439;-75
2022/10/07 12:35:32;;;;;;;4.68;0.00;;;17.40;99.90;;;;;;5056757;28;20487;-75
2022/10/07 12:38:15;;;;;;;6.72;0.47;;;17.30;99.90;;;;;;5074707;28;20056;-75
2022/10/07 12:40:45;;;;;;;3.75;0.20;;;17.40;99.90;;;;;;5056356;28;20025;-72
2022/10/07 12:43:25;;;;;;;5.07;0.20;;;17.30;99.90;;;;;;5056587;28;20027;-72
2022/10/07 12:45:52;;;;;;;3.53;0.00;;;17.40;99.90;;;;;;5074347;28;20029;-72
2022/10/07 12:48:21;;;;;;;7.03;0.40;;;17.40;99.90;;;;;;5074020;28;20036;-75
2022/10/07 12:50:50;;;;;;;8.52;0.35;;;17.60;99.90;;;;;;5056008;28;20364;-72
2022/10/07 12:53:18;;;;;;;7.43;0.47;;;17.80;99.90;;;;;;5074000;28;20025;-72
2022/10/07 12:55:52;;;;;;;6.78;0.55;;;17.70;99.90;;;;;;5075092;28;20021;-76
2022/10/07 13:02:00;;;;;;;4.00;0.20;;;17.90;99.90;;;;;;5074474;28;20035;-73
2022/10/07 13:04:59;;;;;;;2.97;0.10;;;18.00;99.90;;;;;;5074378;28;20028;-73
2022/10/07 13:07:56;;;;;;;5.70;0.35;;;18.10;99.90;;;;;;5073440;28;20024;-73
2022/10/07 13:10:52;;;;;;;7.00;0.32;;;18.10;99.90;;;;;;5055725;28;20078;-73
2022/10/07 13:13:28;;;;;;;3.28;0.40;;;18.20;99.90;;;;;;5073545;28;20032;-73
2022/10/07 13:16:26;;;;;;;8.38;0.50;;;18.00;99.90;;;;;;5073773;28;20387;-73
2022/10/07 13:19:18;;;;;;;6.60;0.47;;;17.70;99.90;;;;;;5073536;28;20107;-73
2022/10/07 13:22:04;;;;;;;4.40;0.30;;;17.60;99.90;;;;;;5022568;28;20140;-73
2022/10/07 13:24:29;;;;;;;4.40;0.63;;;17.50;99.90;;;;;;5039302;28;20055;-73
2022/10/07 13:26:56;;;;;;;2.40;0.20;;;17.40;99.90;;;;;;5073427;28;20029;-73
2022/10/07 13:29:25;;;;;;;5.50;0.40;;;17.40;99.90;;;;;;5055281;28;20395;-73
2022/10/07 13:32:05;;;;;;;;;;;17.40;99.90;;;;;;5073734;28;20021;-73